world map with FQNP marked

FQNP - Airport

This information may not be accurate or current and is not valid for navigation or flight planning. No warranty of fitness for any purpose is made or implied.

flag of Mozambique

Donate via PayPal

Additional information is available on the NEW Great Circle Mapper

Location
City:  Nampula, Nampula, Mozambique
Name:Nampula Airport
ICAO / IATA:FQNP / APL

Details
Type:Airport (Aerodrome, Airfield)
Use:Public/Civil
Latitude:15°06'20"S (-15.105610)
Longitude:39°16'54"E (39.281800)
Datum:WGS 1984
Elevation:1444 ft (440 m)
Runways:2
Longest:6562 × 148 ft (2000 × 45 m)

Time
Timezone:UTC+2 (DST+4)
Local Time:

Weather
METAR:FQNP  141800Z 12004KT 9999 SCT020 FEW030CB 27/23 Q1018 RMK VCTS W
TAF:FQNP  (expired)

Related Locations
Nearby:
Farthest:ITO: 11449 mi / 18426 km
Hilo [Hilo Intl], Hawaii, HI, US

Find:

   beyond  
but within

Other Information
Maps:
Sources:

  


 


Great Circle Mapper   Great Circle Mapper
Great Circle Mapper FAQ   Great Circle Mapper FAQ
  Karl's Home Page
KLSē   KLSē Home
   GC on Facebook
Airlines of the World   Airlines of the World
Donate via PayPal


Copyright © 2004-2018, Karl L. Swartz. All rights reserved.
All trademarks mentioned herein belong to their respective owners.

Please see credits for attribution and copyright information.

Karl Swartz <karl@kls2.com>
  Powered by FreeBSD
Valid HTML 4.01!
Labeled with ICRA
hCard Microformat
Geo Microformat